This is the latest recevied weather packets stored in our database for station/object OE-11361. If no packets are shown the sender has not sent any weather packets the latest 10 day(s).
| Time | Temp. | Humidity | Pressure | Rain* | Wind** | Luminosity | Snow |
|---|---|---|---|---|---|---|---|
| 1788009077 | 24.44° C | 44% | 1015.1 hPa | 0 mm | - | 414 W/m² | - |
| 1788008704 | 23.89° C | 42% | 1015.2 hPa | 0 mm | - | 455 W/m² | - |
| 1788008104 | 23.89° C | 43% | 1015.1 hPa | 0 mm | - | 565 W/m² | - |
| 1788007277 | 23.89° C | 44% | 1015.2 hPa | 0 mm | - | 724 W/m² | - |
| 1788006904 | 23.33° C | 46% | 1015.4 hPa | 0 mm | - | 689 W/m² | - |
| 1788006304 | 22.78° C | 48% | 1015.8 hPa | 0 mm | - | 482 W/m² | - |
| 1788005476 | 22.78° C | 51% | 1015.9 hPa | 0 mm | - | 538 W/m² | - |
| 1788005104 | 22.78° C | 54% | 1016 hPa | 0 mm | - | 503 W/m² | - |
| 1788004504 | 22.78° C | 55% | 1016 hPa | 0 mm | - | 455 W/m² | - |
| 1788003677 | 23.33° C | 54% | 1015.9 hPa | 0 mm | - | 627 W/m² | - |
| 1788003304 | 22.78° C | 52% | 1016.2 hPa | 0 mm | - | 462 W/m² | - |
| 1788002704 | 22.78° C | 48% | 1016.3 hPa | 0 mm | - | 689 W/m² | - |
| 1788001877 | 22.22° C | 50% | 1016.4 hPa | 0 mm | - | 620 W/m² | - |
| 1788001504 | 22.22° C | 55% | 1016.4 hPa | 0 mm | - | 496 W/m² | - |
| 1788000904 | 22.22° C | 57% | 1016.4 hPa | 0 mm | - | 751 W/m² | - |
| 1788000077 | 23.33° C | 54% | 1016.3 hPa | 0 mm | - | 806 W/m² | - |
| 1787999704 | 22.22° C | 59% | 1016.5 hPa | 0 mm | - | 765 W/m² | - |
| 1787999104 | 21.67° C | 53% | 1016.8 hPa | 0 mm | - | 662 W/m² | - |
| 1787998277 | 21.67° C | 55% | 1016.8 hPa | 0 mm | - | 737 W/m² | - |
| 1787997903 | 21.11° C | 58% | 1016.9 hPa | 0 mm | - | 737 W/m² | - |
| 1787997304 | 21.11° C | 59% | 1017.2 hPa | 0 mm | - | 724 W/m² | - |
| 1787996477 | 20.56° C | 57% | 1017.4 hPa | 0 mm | - | 724 W/m² | - |
| 1787996104 | 20.56° C | 59% | 1017.6 hPa | 0 mm | - | 696 W/m² | - |
| 1787995504 | 20° C | 61% | 1017.7 hPa | 0 mm | - | 648 W/m² | - |
| 1787994677 | 20° C | 62% | 1017.9 hPa | 0 mm | - | 717 W/m² | - |
* Rain latest hour (hover to see other rain measurements)
** Current wind speed in m/s (hover to see current wind gust speed)